Kezdőlap
METAR-TAF:

METAR-TAF

Repülőterek :

Sanghaj-Putungi nemzetközi repülőtér

Sanghaj-Pudong, Kína

földrajzi szélesség: 31-07N, földrajzi hosszúság: 121-46E, magasság: 4 m

Jelenlegi meteorológiai megfigyelések

A jelentés 41 perccel ezelõtt készült, 18:00 UTC
Délnyugati szél 2 kt
Hőmérséklet 26°C
Páratartalom 94%
Légköri nyomás 1005 hPa
Látótávolság 10 km, vagy több
felhőtlen 1500 m magasságban, és nincs gomolyfelhõ

METAR: ZSPD 071800Z 22001MPS CAVOK 26/25 Q1005 NOSIG

Idő: 02:41 (18:41 UTC)

Előrejelzés

A jelentés 3 órával és 33 perccel ezelõtt készült, 15:08 UTC
Az előrejelzés 07-én 18 óra UTC és 08-én 18 óra UTC között érvényes
Kelet-északkeleti szél 8 kt
Látótávolság: 6000 m
Szakadozott felhőzet 1600 lábon
08-én 02 óra UTC és 08-én 04 óra UTC között fokozatosan kialakuló
Délkeleti szél 8 kt

TAF: ZSPD 071508Z 0718/0818 06004MPS 6000 BKN016 TX27/0806Z TN23/0720Z BECMG 0802/0804 13004MPS

Meteorológiai megfigyelések és előrejelzések több, mint 4000 repülőtéren (METAR és TAF jelentéseket).

A térképen piros és sárga pontok jelzik az elérhető meteorológiai állomásokat.

Mozgassa az egeret a pont fölött, hogy megjelenjen az állomás neve.

Azután kattintson az időjárási megfigyelések és előrejelzések megtekintéséhez.

A térkép megváltoztatása: kattintson a fekete keresztel jelölt zöld gombra ráközelítéshez, a vonallal jelölt zöld gombra távolításhoz, vagy a zöld nyilakra a szomszédos térképek eléréséhez.


METAR-TAF: